Terminal Aerodrome Forecast
Issued by NWS Northern Indiana

Home | Current Version | Previous Version | Text Only | Print | Product List | Glossary Off
Versions: 1 2 3 4 5 6 7 8 9 10 11 12 13 14 15 16 17 18 19 20 21

000
FTUS43 KIWX 201314 AAA
TAFFWA
TAF AMD
KFWA 201314Z 2013/2112 00000KT 2SM BR SCT002 SCT050
     FM201400 19004KT 5SM BR SCT050
     FM201600 20005KT P6SM BKN050
     FM202100 21006KT P6SM SCT100=

USA.gov is the U.S. government's official web portal to all federal, state and local government web resources and services.